Terminal Aerodrome Forecast
Issued by NWS

Home | Current Version | Previous Version | Text Only | Print | Product List | Glossary On
Versions: 1 2 3 4 5 6 7 8 9 10 11 12
726
FTUS45 KABQ 271740
TAFROW
TAF
KROW 271740Z 2718/2818 26015G25KT P6SM FEW090
     FM280000 24012KT P6SM FEW090
     FM280300 23008KT P6SM SKC=

USA.gov is the U.S. government's official web portal to all federal, state and local government web resources and services.